sensor_id;sensor_type;location;lat;lon;timestamp;P1;durP1;ratioP1;P2;durP2;ratioP2
26157;SDS011;67284;44.782;10.282;2023-02-15T00:02:39;43.75;;;21.25;;
26157;SDS011;67284;44.782;10.282;2023-02-15T00:07:31;43.10;;;20.48;;
26157;SDS011;67284;44.782;10.282;2023-02-15T00:12:23;43.22;;;20.45;;
26157;SDS011;67284;44.782;10.282;2023-02-15T00:17:15;41.25;;;19.40;;
26157;SDS011;67284;44.782;10.282;2023-02-15T00:22:06;44.50;;;19.38;;
26157;SDS011;67284;44.782;10.282;2023-02-15T00:26:58;40.75;;;19.67;;
26157;SDS011;67284;44.782;10.282;2023-02-15T00:31:50;43.05;;;20.23;;
26157;SDS011;67284;44.782;10.282;2023-02-15T00:36:43;44.67;;;19.15;;
26157;SDS011;67284;44.782;10.282;2023-02-15T00:41:37;38.78;;;19.20;;
26157;SDS011;67284;44.782;10.282;2023-02-15T00:46:30;39.67;;;19.08;;
26157;SDS011;67284;44.782;10.282;2023-02-15T00:51:22;36.35;;;17.13;;
26157;SDS011;67284;44.782;10.282;2023-02-15T00:56:14;42.17;;;18.33;;
26157;SDS011;67284;44.782;10.282;2023-02-15T01:01:07;40.25;;;17.98;;
26157;SDS011;67284;44.782;10.282;2023-02-15T01:06:03;40.00;;;18.25;;
26157;SDS011;67284;44.782;10.282;2023-02-15T01:10:56;38.80;;;16.52;;
26157;SDS011;67284;44.782;10.282;2023-02-15T01:15:57;39.13;;;17.92;;
26157;SDS011;67284;44.782;10.282;2023-02-15T01:20:49;31.65;;;14.82;;
26157;SDS011;67284;44.782;10.282;2023-02-15T01:25:42;32.55;;;15.73;;
26157;SDS011;67284;44.782;10.282;2023-02-15T01:30:34;34.78;;;15.43;;
26157;SDS011;67284;44.782;10.282;2023-02-15T01:35:26;35.30;;;15.93;;
26157;SDS011;67284;44.782;10.282;2023-02-15T01:40:19;34.92;;;18.45;;
26157;SDS011;67284;44.782;10.282;2023-02-15T01:45:30;34.78;;;16.50;;
26157;SDS011;67284;44.782;10.282;2023-02-15T01:55:55;29.80;;;14.15;;
26157;SDS011;67284;44.782;10.282;2023-02-15T02:00:50;30.42;;;14.75;;
26157;SDS011;67284;44.782;10.282;2023-02-15T02:05:42;35.78;;;16.17;;
26157;SDS011;67284;44.782;10.282;2023-02-15T02:10:36;32.17;;;14.88;;
26157;SDS011;67284;44.782;10.282;2023-02-15T02:15:30;30.67;;;15.75;;
26157;SDS011;67284;44.782;10.282;2023-02-15T02:35:57;27.08;;;12.93;;
26157;SDS011;67284;44.782;10.282;2023-02-15T02:46:10;32.67;;;14.80;;
26157;SDS011;67284;44.782;10.282;2023-02-15T02:51:09;30.70;;;14.38;;
26157;SDS011;67284;44.782;10.282;2023-02-15T03:01:32;30.05;;;14.02;;
26157;SDS011;67284;44.782;10.282;2023-02-15T03:11:32;29.08;;;13.05;;
26157;SDS011;67284;44.782;10.282;2023-02-15T03:16:24;27.50;;;12.48;;
26157;SDS011;67284;44.782;10.282;2023-02-15T03:21:17;27.33;;;14.27;;
26157;SDS011;67284;44.782;10.282;2023-02-15T03:26:13;22.35;;;11.98;;
26157;SDS011;67284;44.782;10.282;2023-02-15T03:31:08;22.38;;;11.80;;
26157;SDS011;67284;44.782;10.282;2023-02-15T03:41:12;18.25;;;9.45;;
26157;SDS011;67284;44.782;10.282;2023-02-15T03:46:29;19.27;;;10.23;;
26157;SDS011;67284;44.782;10.282;2023-02-15T03:51:26;16.95;;;9.40;;
26157;SDS011;67284;44.782;10.282;2023-02-15T03:56:29;13.95;;;7.88;;
26157;SDS011;67284;44.782;10.282;2023-02-15T04:06:36;13.52;;;7.68;;
26157;SDS011;67284;44.782;10.282;2023-02-15T04:11:28;13.00;;;8.35;;
26157;SDS011;67284;44.782;10.282;2023-02-15T04:16:20;14.25;;;8.13;;
26157;SDS011;67284;44.782;10.282;2023-02-15T04:21:12;14.63;;;8.25;;
26157;SDS011;67284;44.782;10.282;2023-02-15T04:26:22;12.18;;;7.20;;
26157;SDS011;67284;44.782;10.282;2023-02-15T04:31:14;11.05;;;7.13;;
26157;SDS011;67284;44.782;10.282;2023-02-15T04:36:06;12.20;;;8.27;;
26157;SDS011;67284;44.782;10.282;2023-02-15T04:40:57;12.93;;;8.10;;
26157;SDS011;67284;44.782;10.282;2023-02-15T04:45:49;12.95;;;7.18;;
26157;SDS011;67284;44.782;10.282;2023-02-15T04:50:42;11.70;;;7.68;;
26157;SDS011;67284;44.782;10.282;2023-02-15T04:55:34;15.00;;;7.25;;
26157;SDS011;67284;44.782;10.282;2023-02-15T05:00:26;13.32;;;7.80;;
26157;SDS011;67284;44.782;10.282;2023-02-15T05:05:19;16.48;;;7.80;;
26157;SDS011;67284;44.782;10.282;2023-02-15T05:10:11;14.07;;;8.15;;
26157;SDS011;67284;44.782;10.282;2023-02-15T05:15:02;11.77;;;7.22;;
26157;SDS011;67284;44.782;10.282;2023-02-15T05:19:54;14.10;;;7.35;;
26157;SDS011;67284;44.782;10.282;2023-02-15T05:24:46;12.90;;;8.10;;
26157;SDS011;67284;44.782;10.282;2023-02-15T05:29:57;11.93;;;7.22;;
26157;SDS011;67284;44.782;10.282;2023-02-15T05:34:49;12.93;;;7.40;;
26157;SDS011;67284;44.782;10.282;2023-02-15T05:39:40;9.95;;;6.35;;
26157;SDS011;67284;44.782;10.282;2023-02-15T05:44:32;11.93;;;7.60;;
26157;SDS011;67284;44.782;10.282;2023-02-15T05:49:24;11.80;;;8.15;;
26157;SDS011;67284;44.782;10.282;2023-02-15T05:54:16;13.02;;;7.93;;
26157;SDS011;67284;44.782;10.282;2023-02-15T05:59:08;14.25;;;8.07;;
26157;SDS011;67284;44.782;10.282;2023-02-15T06:04:00;14.23;;;8.15;;
26157;SDS011;67284;44.782;10.282;2023-02-15T06:08:52;12.65;;;7.07;;
26157;SDS011;67284;44.782;10.282;2023-02-15T06:13:44;13.98;;;7.88;;
26157;SDS011;67284;44.782;10.282;2023-02-15T06:18:35;12.77;;;8.25;;
26157;SDS011;67284;44.782;10.282;2023-02-15T06:23:27;14.65;;;8.75;;
26157;SDS011;67284;44.782;10.282;2023-02-15T06:28:19;15.02;;;8.90;;
26157;SDS011;67284;44.782;10.282;2023-02-15T06:33:11;15.05;;;8.82;;
26157;SDS011;67284;44.782;10.282;2023-02-15T06:38:03;19.02;;;9.40;;
26157;SDS011;67284;44.782;10.282;2023-02-15T06:42:55;13.25;;;8.70;;
26157;SDS011;67284;44.782;10.282;2023-02-15T06:47:47;16.88;;;8.65;;
26157;SDS011;67284;44.782;10.282;2023-02-15T06:52:38;16.10;;;10.02;;
26157;SDS011;67284;44.782;10.282;2023-02-15T06:57:30;14.50;;;7.57;;
26157;SDS011;67284;44.782;10.282;2023-02-15T07:02:23;12.00;;;7.78;;
26157;SDS011;67284;44.782;10.282;2023-02-15T07:07:15;11.27;;;6.82;;
26157;SDS011;67284;44.782;10.282;2023-02-15T07:12:07;11.35;;;6.97;;
26157;SDS011;67284;44.782;10.282;2023-02-15T07:17:18;13.55;;;7.30;;
26157;SDS011;67284;44.782;10.282;2023-02-15T07:22:26;11.10;;;7.35;;
26157;SDS011;67284;44.782;10.282;2023-02-15T07:27:19;10.50;;;6.00;;
26157;SDS011;67284;44.782;10.282;2023-02-15T07:32:10;10.73;;;6.57;;
26157;SDS011;67284;44.782;10.282;2023-02-15T07:37:04;8.95;;;6.07;;
26157;SDS011;67284;44.782;10.282;2023-02-15T07:41:55;9.93;;;5.22;;
26157;SDS011;67284;44.782;10.282;2023-02-15T07:51:46;7.35;;;5.32;;
26157;SDS011;67284;44.782;10.282;2023-02-15T07:56:38;11.23;;;6.30;;
26157;SDS011;67284;44.782;10.282;2023-02-15T08:01:31;9.65;;;5.45;;
26157;SDS011;67284;44.782;10.282;2023-02-15T08:06:27;14.02;;;6.90;;
26157;SDS011;67284;44.782;10.282;2023-02-15T08:11:25;16.50;;;9.65;;
26157;SDS011;67284;44.782;10.282;2023-02-15T08:16:27;15.73;;;8.95;;
26157;SDS011;67284;44.782;10.282;2023-02-15T08:21:26;18.02;;;7.28;;
26157;SDS011;67284;44.782;10.282;2023-02-15T08:26:22;14.82;;;8.43;;
26157;SDS011;67284;44.782;10.282;2023-02-15T08:31:14;21.00;;;10.43;;
26157;SDS011;67284;44.782;10.282;2023-02-15T08:36:16;62.20;;;29.02;;
26157;SDS011;67284;44.782;10.282;2023-02-15T08:46:12;67.55;;;29.70;;
26157;SDS011;67284;44.782;10.282;2023-02-15T08:51:07;77.13;;;35.67;;
26157;SDS011;67284;44.782;10.282;2023-02-15T08:56:03;78.78;;;39.30;;
26157;SDS011;67284;44.782;10.282;2023-02-15T09:00:55;81.95;;;41.15;;
26157;SDS011;67284;44.782;10.282;2023-02-15T09:05:47;90.05;;;41.90;;
26157;SDS011;67284;44.782;10.282;2023-02-15T09:10:39;90.68;;;41.65;;
26157;SDS011;67284;44.782;10.282;2023-02-15T09:15:30;87.63;;;42.35;;
26157;SDS011;67284;44.782;10.282;2023-02-15T09:20:22;80.78;;;40.42;;
26157;SDS011;67284;44.782;10.282;2023-02-15T09:25:15;84.68;;;40.08;;
26157;SDS011;67284;44.782;10.282;2023-02-15T09:30:07;80.68;;;38.70;;
26157;SDS011;67284;44.782;10.282;2023-02-15T09:34:59;76.43;;;36.53;;
26157;SDS011;67284;44.782;10.282;2023-02-15T09:39:51;75.38;;;35.95;;
26157;SDS011;67284;44.782;10.282;2023-02-15T10:05:46;71.60;;;34.53;;
26157;SDS011;67284;44.782;10.282;2023-02-15T10:11:15;69.20;;;32.72;;
26157;SDS011;67284;44.782;10.282;2023-02-15T10:16:35;63.83;;;32.83;;
26157;SDS011;67284;44.782;10.282;2023-02-15T10:26:44;58.40;;;28.50;;
26157;SDS011;67284;44.782;10.282;2023-02-15T10:32:22;58.88;;;29.73;;
26157;SDS011;67284;44.782;10.282;2023-02-15T10:53:26;50.13;;;26.25;;
26157;SDS011;67284;44.782;10.282;2023-02-15T10:58:54;51.50;;;24.52;;
26157;SDS011;67284;44.782;10.282;2023-02-15T11:08:54;51.05;;;25.40;;
26157;SDS011;67284;44.782;10.282;2023-02-15T11:13:52;58.10;;;27.83;;
26157;SDS011;67284;44.782;10.282;2023-02-15T11:18:49;49.33;;;24.95;;
26157;SDS011;67284;44.782;10.282;2023-02-15T11:28:55;56.83;;;26.15;;
26157;SDS011;67284;44.782;10.282;2023-02-15T11:33:58;59.33;;;25.05;;
26157;SDS011;67284;44.782;10.282;2023-02-15T11:38:57;53.63;;;23.70;;
26157;SDS011;67284;44.782;10.282;2023-02-15T11:49:41;53.63;;;26.30;;
26157;SDS011;67284;44.782;10.282;2023-02-15T11:54:28;54.37;;;24.20;;
26157;SDS011;67284;44.782;10.282;2023-02-15T11:59:27;56.70;;;25.77;;
26157;SDS011;67284;44.782;10.282;2023-02-15T12:04:33;55.30;;;25.52;;
26157;SDS011;67284;44.782;10.282;2023-02-15T12:09:38;59.60;;;26.27;;
26157;SDS011;67284;44.782;10.282;2023-02-15T12:14:46;49.15;;;22.85;;
26157;SDS011;67284;44.782;10.282;2023-02-15T12:19:39;58.88;;;26.95;;
26157;SDS011;67284;44.782;10.282;2023-02-15T12:24:38;64.22;;;26.77;;
26157;SDS011;67284;44.782;10.282;2023-02-15T12:29:40;56.55;;;25.05;;
26157;SDS011;67284;44.782;10.282;2023-02-15T12:34:37;56.47;;;26.42;;
26157;SDS011;67284;44.782;10.282;2023-02-15T12:39:32;57.73;;;25.90;;
26157;SDS011;67284;44.782;10.282;2023-02-15T12:44:25;54.03;;;24.17;;
26157;SDS011;67284;44.782;10.282;2023-02-15T12:49:20;58.65;;;26.17;;
26157;SDS011;67284;44.782;10.282;2023-02-15T12:54:16;59.20;;;25.73;;
26157;SDS011;67284;44.782;10.282;2023-02-15T12:59:14;63.45;;;27.15;;
26157;SDS011;67284;44.782;10.282;2023-02-15T13:14:17;49.08;;;23.42;;
26157;SDS011;67284;44.782;10.282;2023-02-15T13:24:05;65.60;;;27.83;;
26157;SDS011;67284;44.782;10.282;2023-02-15T13:29:10;56.95;;;25.75;;
26157;SDS011;67284;44.782;10.282;2023-02-15T13:34:12;61.13;;;26.25;;
26157;SDS011;67284;44.782;10.282;2023-02-15T13:39:14;60.28;;;25.38;;
26157;SDS011;67284;44.782;10.282;2023-02-15T13:49:40;51.28;;;24.35;;
26157;SDS011;67284;44.782;10.282;2023-02-15T14:04:35;57.65;;;26.92;;
26157;SDS011;67284;44.782;10.282;2023-02-15T14:20:20;66.03;;;29.15;;
26157;SDS011;67284;44.782;10.282;2023-02-15T14:30:22;54.33;;;24.55;;
26157;SDS011;67284;44.782;10.282;2023-02-15T14:35:19;54.60;;;24.58;;
26157;SDS011;67284;44.782;10.282;2023-02-15T14:40:26;60.45;;;25.35;;
26157;SDS011;67284;44.782;10.282;2023-02-15T14:55:35;59.90;;;26.40;;
26157;SDS011;67284;44.782;10.282;2023-02-15T15:00:31;53.10;;;23.05;;
26157;SDS011;67284;44.782;10.282;2023-02-15T15:05:32;48.33;;;21.65;;
26157;SDS011;67284;44.782;10.282;2023-02-15T15:40:48;56.13;;;24.27;;
26157;SDS011;67284;44.782;10.282;2023-02-15T15:46:31;46.03;;;20.08;;
26157;SDS011;67284;44.782;10.282;2023-02-15T15:51:32;59.97;;;24.42;;
26157;SDS011;67284;44.782;10.282;2023-02-15T15:56:26;55.08;;;24.02;;
26157;SDS011;67284;44.782;10.282;2023-02-15T16:01:26;47.30;;;21.77;;
26157;SDS011;67284;44.782;10.282;2023-02-15T16:06:29;49.80;;;23.75;;
26157;SDS011;67284;44.782;10.282;2023-02-15T16:11:23;48.78;;;21.63;;
26157;SDS011;67284;44.782;10.282;2023-02-15T16:16:24;52.40;;;21.98;;
26157;SDS011;67284;44.782;10.282;2023-02-15T16:21:21;48.15;;;22.15;;
26157;SDS011;67284;44.782;10.282;2023-02-15T16:31:31;43.78;;;20.55;;
26157;SDS011;67284;44.782;10.282;2023-02-15T16:36:27;45.72;;;20.40;;
26157;SDS011;67284;44.782;10.282;2023-02-15T16:41:26;51.20;;;21.35;;
26157;SDS011;67284;44.782;10.282;2023-02-15T16:46:36;38.35;;;18.05;;
26157;SDS011;67284;44.782;10.282;2023-02-15T16:51:31;42.53;;;20.27;;
26157;SDS011;67284;44.782;10.282;2023-02-15T16:56:26;46.63;;;20.95;;
26157;SDS011;67284;44.782;10.282;2023-02-15T17:01:22;48.97;;;22.33;;
26157;SDS011;67284;44.782;10.282;2023-02-15T17:06:24;52.33;;;21.80;;
26157;SDS011;67284;44.782;10.282;2023-02-15T17:11:19;45.58;;;19.80;;
26157;SDS011;67284;44.782;10.282;2023-02-15T17:16:28;43.88;;;19.90;;
26157;SDS011;67284;44.782;10.282;2023-02-15T17:21:24;42.75;;;19.92;;
26157;SDS011;67284;44.782;10.282;2023-02-15T17:26:20;49.90;;;22.10;;
26157;SDS011;67284;44.782;10.282;2023-02-15T17:31:14;41.28;;;18.42;;
26157;SDS011;67284;44.782;10.282;2023-02-15T17:36:27;58.95;;;24.65;;
26157;SDS011;67284;44.782;10.282;2023-02-15T17:41:21;61.85;;;26.42;;
26157;SDS011;67284;44.782;10.282;2023-02-15T17:46:12;56.20;;;23.95;;
26157;SDS011;67284;44.782;10.282;2023-02-15T17:51:05;60.88;;;25.05;;
26157;SDS011;67284;44.782;10.282;2023-02-15T17:55:59;60.05;;;25.15;;
26157;SDS011;67284;44.782;10.282;2023-02-15T18:01:01;66.78;;;29.80;;
26157;SDS011;67284;44.782;10.282;2023-02-15T18:06:16;68.10;;;30.00;;
26157;SDS011;67284;44.782;10.282;2023-02-15T18:11:26;79.10;;;33.60;;
26157;SDS011;67284;44.782;10.282;2023-02-15T18:16:24;75.85;;;36.33;;
26157;SDS011;67284;44.782;10.282;2023-02-15T18:21:18;74.85;;;31.85;;
26157;SDS011;67284;44.782;10.282;2023-02-15T18:26:19;78.72;;;32.65;;
26157;SDS011;67284;44.782;10.282;2023-02-15T18:31:13;72.57;;;33.20;;
26157;SDS011;67284;44.782;10.282;2023-02-15T18:36:06;69.18;;;31.55;;
26157;SDS011;67284;44.782;10.282;2023-02-15T18:41:02;78.75;;;33.25;;
26157;SDS011;67284;44.782;10.282;2023-02-15T18:45:55;74.45;;;32.53;;
26157;SDS011;67284;44.782;10.282;2023-02-15T18:50:47;78.07;;;35.80;;
26157;SDS011;67284;44.782;10.282;2023-02-15T18:55:38;77.18;;;34.42;;
26157;SDS011;67284;44.782;10.282;2023-02-15T19:00:32;69.18;;;31.65;;
26157;SDS011;67284;44.782;10.282;2023-02-15T19:05:25;68.22;;;31.45;;
26157;SDS011;67284;44.782;10.282;2023-02-15T19:10:22;78.38;;;36.38;;
26157;SDS011;67284;44.782;10.282;2023-02-15T19:15:17;95.57;;;39.85;;
26157;SDS011;67284;44.782;10.282;2023-02-15T19:20:32;82.28;;;38.70;;
26157;SDS011;67284;44.782;10.282;2023-02-15T19:25:24;79.05;;;37.15;;
26157;SDS011;67284;44.782;10.282;2023-02-15T19:30:23;76.82;;;36.22;;
26157;SDS011;67284;44.782;10.282;2023-02-15T19:35:21;75.63;;;33.95;;
26157;SDS011;67284;44.782;10.282;2023-02-15T19:40:20;68.80;;;30.30;;
26157;SDS011;67284;44.782;10.282;2023-02-15T19:45:18;62.33;;;30.52;;
26157;SDS011;67284;44.782;10.282;2023-02-15T19:50:15;64.30;;;29.85;;
26157;SDS011;67284;44.782;10.282;2023-02-15T19:55:15;56.20;;;27.35;;
26157;SDS011;67284;44.782;10.282;2023-02-15T20:00:13;67.32;;;31.70;;
26157;SDS011;67284;44.782;10.282;2023-02-15T20:05:13;64.30;;;29.73;;
26157;SDS011;67284;44.782;10.282;2023-02-15T20:10:12;64.55;;;29.27;;
26157;SDS011;67284;44.782;10.282;2023-02-15T20:20:19;55.83;;;27.55;;
26157;SDS011;67284;44.782;10.282;2023-02-15T20:25:15;68.47;;;28.60;;
26157;SDS011;67284;44.782;10.282;2023-02-15T20:30:14;60.70;;;28.75;;
26157;SDS011;67284;44.782;10.282;2023-02-15T20:35:14;55.15;;;26.95;;
26157;SDS011;67284;44.782;10.282;2023-02-15T20:40:14;59.20;;;27.60;;
26157;SDS011;67284;44.782;10.282;2023-02-15T20:50:08;64.05;;;28.25;;
26157;SDS011;67284;44.782;10.282;2023-02-15T20:55:00;55.80;;;26.08;;
26157;SDS011;67284;44.782;10.282;2023-02-15T20:59:52;58.60;;;26.05;;
26157;SDS011;67284;44.782;10.282;2023-02-15T21:04:44;58.08;;;26.42;;
26157;SDS011;67284;44.782;10.282;2023-02-15T21:09:36;58.97;;;26.45;;
26157;SDS011;67284;44.782;10.282;2023-02-15T21:14:28;53.70;;;27.67;;
26157;SDS011;67284;44.782;10.282;2023-02-15T21:19:20;54.40;;;23.48;;
26157;SDS011;67284;44.782;10.282;2023-02-15T21:24:32;52.38;;;25.48;;
26157;SDS011;67284;44.782;10.282;2023-02-15T21:29:25;54.08;;;24.55;;
26157;SDS011;67284;44.782;10.282;2023-02-15T21:34:18;52.88;;;23.50;;
26157;SDS011;67284;44.782;10.282;2023-02-15T21:39:15;47.13;;;21.70;;
26157;SDS011;67284;44.782;10.282;2023-02-15T21:44:13;47.83;;;22.83;;
26157;SDS011;67284;44.782;10.282;2023-02-15T21:49:28;52.00;;;23.00;;
26157;SDS011;67284;44.782;10.282;2023-02-15T21:54:20;42.97;;;20.92;;
26157;SDS011;67284;44.782;10.282;2023-02-15T21:59:13;44.50;;;21.17;;
26157;SDS011;67284;44.782;10.282;2023-02-15T22:04:10;48.80;;;23.83;;
26157;SDS011;67284;44.782;10.282;2023-02-15T22:09:11;44.92;;;20.70;;
26157;SDS011;67284;44.782;10.282;2023-02-15T22:14:08;49.65;;;22.65;;
26157;SDS011;67284;44.782;10.282;2023-02-15T22:19:22;43.97;;;21.67;;
26157;SDS011;67284;44.782;10.282;2023-02-15T22:24:14;46.50;;;23.60;;
26157;SDS011;67284;44.782;10.282;2023-02-15T22:29:07;42.33;;;20.92;;
26157;SDS011;67284;44.782;10.282;2023-02-15T22:34:04;41.05;;;19.35;;
26157;SDS011;67284;44.782;10.282;2023-02-15T22:38:56;38.35;;;16.85;;
26157;SDS011;67284;44.782;10.282;2023-02-15T22:43:48;42.58;;;19.80;;
26157;SDS011;67284;44.782;10.282;2023-02-15T22:48:41;39.25;;;19.60;;
26157;SDS011;67284;44.782;10.282;2023-02-15T22:53:34;41.50;;;17.92;;
26157;SDS011;67284;44.782;10.282;2023-02-15T22:58:26;38.72;;;17.70;;
26157;SDS011;67284;44.782;10.282;2023-02-15T23:03:20;47.33;;;22.85;;
26157;SDS011;67284;44.782;10.282;2023-02-15T23:08:14;40.53;;;19.05;;
26157;SDS011;67284;44.782;10.282;2023-02-15T23:18:24;44.15;;;18.95;;
26157;SDS011;67284;44.782;10.282;2023-02-15T23:23:21;38.92;;;18.58;;
26157;SDS011;67284;44.782;10.282;2023-02-15T23:28:25;47.33;;;19.83;;
26157;SDS011;67284;44.782;10.282;2023-02-15T23:33:21;46.45;;;20.08;;
26157;SDS011;67284;44.782;10.282;2023-02-15T23:43:19;53.67;;;19.92;;
26157;SDS011;67284;44.782;10.282;2023-02-15T23:48:22;41.45;;;17.98;;
26157;SDS011;67284;44.782;10.282;2023-02-15T23:53:20;35.05;;;17.83;;
26157;SDS011;67284;44.782;10.282;2023-02-15T23:58:14;38.33;;;18.33;;
